Terminal Aerodrome Forecast
Issued by NWS Blacksburg, VA

Home | Current Version | Previous Version | Text Only | Print | Product List | Glossary On
Versions: 1 2 3 4 5 6 7 8 9 10 11 12 13 14 15 16 17 18 19 20 21
000
FTUS41 KRNK 070844 AAA
TAFDAN
TAF AMD
KDAN 070844Z 0709/0806 22003KT 2SM BR SCT030
      TEMPO 0709/0710 1/2SM FG VV001
     FM071000 31006KT P6SM SCT030
     FM072000 VRB03KT P6SM FEW150
     FM080300 00000KT P6SM BKN110=

USA.gov is the U.S. government's official web portal to all federal, state and local government web resources and services.